createdAt,value
2022-12-28T00:01:31.121Z,88.22
2022-12-28T00:04:02.875Z,88.01
2022-12-28T00:06:29.701Z,86.08
2022-12-28T00:08:57.297Z,85.73
2022-12-28T00:11:30.764Z,85.30
2022-12-28T00:14:01.857Z,83.84
2022-12-28T00:16:33.124Z,84.97
2022-12-28T00:19:01.699Z,85.12
2022-12-28T00:21:28.810Z,85.73
2022-12-28T00:23:58.266Z,84.50
2022-12-28T00:26:26.664Z,84.59
2022-12-28T00:28:56.923Z,84.89
2022-12-28T00:31:28.868Z,85.35
2022-12-28T00:33:55.604Z,85.09
2022-12-28T00:36:22.202Z,84.69
2022-12-28T00:38:48.833Z,84.88
2022-12-28T00:41:15.421Z,83.53
2022-12-28T00:43:42.112Z,84.86
2022-12-28T00:46:08.806Z,84.30
2022-12-28T00:48:35.486Z,84.05
2022-12-28T00:51:07.769Z,85.18
2022-12-28T00:53:34.558Z,87.05
2022-12-28T00:56:15.389Z,87.87
2022-12-28T00:58:42.625Z,85.52
2022-12-28T01:01:28.848Z,85.25
2022-12-28T01:03:56.526Z,84.86
2022-12-28T01:06:23.156Z,85.10
2022-12-28T01:08:49.766Z,84.56
2022-12-28T01:11:25.101Z,85.03
2022-12-28T01:13:54.118Z,85.85
2022-12-28T01:16:23.984Z,85.33
2022-12-28T01:18:56.455Z,85.55
2022-12-28T01:21:26.703Z,84.22
2022-12-28T01:23:56.569Z,85.73
2022-12-28T01:26:24.372Z,86.10
2022-12-28T01:28:51.051Z,86.53
2022-12-28T01:31:19.353Z,93.79
2022-12-28T01:33:46.917Z,94.51
2022-12-28T01:36:24.869Z,93.24
2022-12-28T01:38:59.955Z,89.73
2022-12-28T01:41:28.752Z,88.31
2022-12-28T01:43:55.300Z,87.57
2022-12-28T01:46:27.510Z,86.44
2022-12-28T01:49:08.403Z,88.76
2022-12-28T01:51:42.306Z,89.65
2022-12-28T01:54:09.266Z,87.76
2022-12-28T01:56:36.813Z,90.33
2022-12-28T01:59:03.710Z,89.76
2022-12-28T02:01:30.583Z,89.77
2022-12-28T02:03:57.332Z,91.21
2022-12-28T02:06:23.947Z,90.25
2022-12-28T02:08:50.581Z,92.30
2022-12-28T02:11:19.281Z,95.96
2022-12-28T02:13:51.252Z,94.90
2022-12-28T02:16:18.484Z,96.02
2022-12-28T02:18:46.780Z,98.47
2022-12-28T02:21:23.650Z,98.96
2022-12-28T02:24:08.817Z,99.12
2022-12-28T02:27:06.260Z,98.18
2022-12-28T02:30:10.193Z,94.72
2022-12-28T02:33:00.758Z,91.55
2022-12-28T02:35:54.309Z,90.35
2022-12-28T02:38:42.885Z,88.55
2022-12-28T02:41:13.772Z,87.39
2022-12-28T02:43:40.631Z,86.39
2022-12-28T02:46:28.938Z,84.88
2022-12-28T02:48:55.665Z,84.82
2022-12-28T02:51:28.433Z,87.18
2022-12-28T02:54:00.733Z,91.61
2022-12-28T02:56:52.857Z,91.11
2022-12-28T02:59:22.398Z,89.61
2022-12-28T03:01:51.795Z,89.24
2022-12-28T03:04:33.229Z,88.02
2022-12-28T03:07:21.551Z,87.67
2022-12-28T03:10:00.278Z,87.21
2022-12-28T03:12:40.324Z,92.47
2022-12-28T03:15:12.038Z,91.83
2022-12-28T03:17:42.521Z,90.51
2022-12-28T03:20:16.876Z,89.44
2022-12-28T03:22:45.525Z,87.91
2022-12-28T03:25:17.351Z,88.19
2022-12-28T03:27:46.136Z,88.47
2022-12-28T03:30:18.337Z,88.44
2022-12-28T03:32:47.615Z,87.88
2022-12-28T03:35:14.856Z,88.05
2022-12-28T03:37:52.604Z,87.61
2022-12-28T03:40:30.597Z,86.71
2022-12-28T03:43:07.796Z,86.22
2022-12-28T03:45:50.316Z,86.85
2022-12-28T03:48:17.754Z,86.27
2022-12-28T03:50:47.767Z,86.41
2022-12-28T03:53:19.096Z,87.01
2022-12-28T03:55:45.756Z,86.80
2022-12-28T03:58:12.503Z,87.37
2022-12-28T04:00:39.138Z,86.52
2022-12-28T04:03:05.832Z,86.90
2022-12-28T04:05:32.529Z,85.30
2022-12-28T04:07:59.103Z,86.13
2022-12-28T04:10:25.696Z,86.15
2022-12-28T04:12:56.091Z,86.31
2022-12-28T04:15:22.689Z,86.22
2022-12-28T04:17:49.311Z,85.74
2022-12-28T04:20:15.968Z,85.14
2022-12-28T04:22:42.542Z,84.52
2022-12-28T04:25:09.402Z,83.27
2022-12-28T04:27:36.000Z,83.82
2022-12-28T04:30:02.594Z,84.17
2022-12-28T04:32:29.201Z,83.92
2022-12-28T04:34:55.810Z,84.62
2022-12-28T04:37:22.420Z,81.96
2022-12-28T04:39:54.920Z,82.67
2022-12-28T04:42:25.658Z,84.50
2022-12-28T04:44:52.381Z,85.07
2022-12-28T04:47:18.991Z,85.87
2022-12-28T04:49:45.623Z,85.73
2022-12-28T04:52:12.303Z,85.18
2022-12-28T04:54:38.923Z,85.75
2022-12-28T04:57:05.592Z,86.53
2022-12-28T04:59:32.209Z,86.52
2022-12-28T05:01:58.924Z,85.87
2022-12-28T05:04:25.978Z,84.84
2022-12-28T05:06:52.558Z,85.90
2022-12-28T05:09:19.183Z,86.13
2022-12-28T05:11:46.860Z,84.99
2022-12-28T05:14:13.484Z,84.66
2022-12-28T05:16:40.727Z,85.73
2022-12-28T05:19:07.392Z,86.47
2022-12-28T05:21:34.199Z,87.58
2022-12-28T05:24:00.970Z,87.38
2022-12-28T05:26:29.346Z,86.53
2022-12-28T05:28:56.806Z,86.53
2022-12-28T05:31:23.739Z,86.37
2022-12-28T05:33:50.460Z,86.70
2022-12-28T05:36:22.285Z,88.95
2022-12-28T05:38:49.191Z,88.50
2022-12-28T05:41:19.187Z,87.80
2022-12-28T05:43:46.405Z,87.96
2022-12-28T05:46:16.271Z,86.91
2022-12-28T05:48:43.584Z,86.94
2022-12-28T05:51:15.459Z,87.88
2022-12-28T05:53:43.052Z,89.28
2022-12-28T05:56:15.337Z,92.28
2022-12-28T05:58:43.250Z,91.43
2022-12-28T06:01:20.152Z,89.85
2022-12-28T06:03:48.814Z,89.14
2022-12-28T06:06:17.737Z,89.91
2022-12-28T06:08:45.772Z,90.83
2022-12-28T06:11:17.749Z,90.17
2022-12-28T06:13:45.001Z,88.59
2022-12-28T06:16:15.484Z,87.42
2022-12-28T06:18:43.255Z,87.33
2022-12-28T06:21:23.468Z,87.49
2022-12-28T06:23:50.542Z,87.29
2022-12-28T06:26:20.566Z,86.17
2022-12-28T06:28:48.089Z,87.17
2022-12-28T06:31:17.728Z,90.47
2022-12-28T06:33:45.342Z,91.58
2022-12-28T06:36:20.357Z,90.00
2022-12-28T06:38:48.949Z,89.17
2022-12-28T06:41:17.822Z,89.62
2022-12-28T06:43:45.711Z,89.44
2022-12-28T06:46:14.059Z,89.75
2022-12-28T06:48:41.507Z,89.11
2022-12-28T06:51:12.844Z,89.33
2022-12-28T06:53:39.898Z,89.12
2022-12-28T06:56:13.543Z,89.35
2022-12-28T06:58:40.811Z,88.83
2022-12-28T07:01:09.335Z,89.48
2022-12-28T07:03:36.125Z,90.04
2022-12-28T07:06:04.706Z,86.64
2022-12-28T07:08:31.838Z,87.25
2022-12-28T07:11:24.883Z,88.39
2022-12-28T07:13:51.550Z,89.47
2022-12-28T07:16:20.625Z,89.12
2022-12-28T07:18:47.466Z,89.62
2022-12-28T07:21:16.199Z,89.94
2022-12-28T07:23:43.230Z,89.48
2022-12-28T07:26:13.439Z,90.65
2022-12-28T07:28:41.982Z,90.27
2022-12-28T07:31:11.680Z,90.94
2022-12-28T07:33:38.771Z,92.10
2022-12-28T07:36:07.409Z,91.01
2022-12-28T07:38:34.985Z,91.23
2022-12-28T07:41:03.560Z,91.76
2022-12-28T07:43:33.365Z,92.06
2022-12-28T07:46:05.256Z,91.49
2022-12-28T07:48:33.309Z,91.74
2022-12-28T07:51:26.034Z,94.10
2022-12-28T07:53:54.200Z,94.38
2022-12-28T07:56:22.697Z,93.44
2022-12-28T07:58:54.309Z,93.25
2022-12-28T08:01:24.607Z,93.77
2022-12-28T08:03:57.342Z,92.63
2022-12-28T08:06:25.946Z,92.74
2022-12-28T08:08:55.444Z,91.65
2022-12-28T08:11:25.091Z,93.60
2022-12-28T08:13:54.070Z,94.19
2022-12-28T08:16:22.115Z,94.69
2022-12-28T08:18:49.566Z,94.83
2022-12-28T08:21:18.320Z,94.23
2022-12-28T08:23:44.967Z,95.92
2022-12-28T08:26:23.904Z,96.33
2022-12-28T08:28:54.099Z,95.61
2022-12-28T08:31:26.834Z,92.93
2022-12-28T08:33:55.050Z,93.75
2022-12-28T08:36:22.493Z,92.48
2022-12-28T08:38:50.056Z,93.96
2022-12-28T08:41:20.381Z,93.54
2022-12-28T08:43:47.981Z,91.04
2022-12-28T08:46:17.767Z,89.41
2022-12-28T08:48:45.384Z,90.45
2022-12-28T08:51:17.404Z,91.15
2022-12-28T08:53:44.962Z,93.46
2022-12-28T08:56:21.740Z,92.92
2022-12-28T08:58:49.442Z,88.17
2022-12-28T09:01:19.497Z,85.55
2022-12-28T09:03:48.503Z,85.04
2022-12-28T09:06:21.775Z,84.56
2022-12-28T09:09:04.788Z,88.19
2022-12-28T09:11:33.044Z,89.76
2022-12-28T09:13:59.714Z,89.38
2022-12-28T09:16:27.898Z,87.99
2022-12-28T09:19:02.632Z,83.77
2022-12-28T09:21:33.224Z,84.41
2022-12-28T09:23:59.913Z,83.33
2022-12-28T09:26:29.699Z,82.69
2022-12-28T09:28:59.079Z,81.24
2022-12-28T09:31:28.505Z,82.14
2022-12-28T09:34:34.425Z,81.91
2022-12-28T09:36:44.297Z,82.49
2022-12-28T09:39:16.265Z,85.30
2022-12-28T09:41:57.781Z,84.10
2022-12-28T09:44:33.668Z,82.60
2022-12-28T09:47:04.899Z,81.15
2022-12-28T09:49:58.999Z,80.60
2022-12-28T09:52:49.807Z,81.55
2022-12-28T09:55:18.794Z,82.84
2022-12-28T09:57:50.888Z,79.73
2022-12-28T10:00:21.112Z,80.52
2022-12-28T10:02:53.072Z,79.34
2022-12-28T10:05:21.373Z,79.42
2022-12-28T10:07:48.324Z,79.80
2022-12-28T10:10:20.237Z,75.51
2022-12-28T10:12:47.628Z,78.29
2022-12-28T10:15:15.956Z,78.20
2022-12-28T10:17:43.544Z,80.24
2022-12-28T10:20:19.606Z,75.41
2022-12-28T10:22:55.755Z,71.92
2022-12-28T10:25:25.057Z,71.98
2022-12-28T10:27:52.859Z,78.71
2022-12-28T10:30:24.869Z,70.40
2022-12-28T10:33:02.068Z,69.01
2022-12-28T10:35:34.082Z,70.60
2022-12-28T10:38:07.309Z,71.52
2022-12-28T10:40:38.124Z,70.56
2022-12-28T10:43:10.489Z,70.45
2022-12-28T10:45:48.459Z,66.84
2022-12-28T10:48:19.431Z,67.02
2022-12-28T10:50:59.212Z,68.03
2022-12-28T10:53:32.656Z,66.70
2022-12-28T10:56:14.525Z,68.76
2022-12-28T10:58:45.799Z,69.07
2022-12-28T11:01:12.462Z,68.40
2022-12-28T11:03:46.405Z,66.46
2022-12-28T11:06:15.235Z,67.85
2022-12-28T11:08:43.499Z,68.11
2022-12-28T11:11:19.699Z,67.39
2022-12-28T11:13:51.682Z,67.87
2022-12-28T11:16:18.340Z,68.60
2022-12-28T11:18:45.131Z,65.53
2022-12-28T11:21:21.823Z,67.16
2022-12-28T11:23:50.831Z,68.93
2022-12-28T11:26:19.046Z,66.60
2022-12-28T11:28:49.241Z,66.32
2022-12-28T11:31:32.084Z,67.15
2022-12-28T11:34:01.464Z,67.19
2022-12-28T11:36:28.408Z,69.47
2022-12-28T11:38:56.877Z,71.93
2022-12-28T11:41:24.779Z,71.00
2022-12-28T11:43:59.352Z,70.16
2022-12-28T11:46:25.889Z,69.30
2022-12-28T11:49:01.105Z,71.05
2022-12-28T11:51:35.966Z,69.08
2022-12-28T11:54:48.479Z,68.92
2022-12-28T11:57:36.072Z,71.19
2022-12-28T12:00:37.857Z,69.48
2022-12-28T12:03:04.670Z,71.14
2022-12-28T12:05:37.280Z,70.70
2022-12-28T12:08:09.979Z,69.84
2022-12-28T12:10:38.003Z,66.42
2022-12-28T12:13:24.761Z,66.60
2022-12-28T12:16:03.944Z,69.02
2022-12-28T12:18:40.166Z,67.36
2022-12-28T12:21:13.532Z,65.39
2022-12-28T12:24:01.938Z,65.02
2022-12-28T12:26:35.632Z,63.69
2022-12-28T12:29:11.481Z,63.50
2022-12-28T12:31:47.028Z,66.26
2022-12-28T12:34:29.441Z,65.36
2022-12-28T12:37:18.317Z,64.28
2022-12-28T12:39:58.532Z,65.07
2022-12-28T12:42:35.999Z,65.01
2022-12-28T12:45:27.478Z,63.48
2022-12-28T12:48:03.322Z,62.35
2022-12-28T12:50:41.802Z,62.79
2022-12-28T12:53:43.140Z,64.18
2022-12-28T12:56:38.820Z,68.75
2022-12-28T12:59:29.539Z,64.36
2022-12-28T13:01:58.981Z,65.10
2022-12-28T13:04:29.367Z,66.19
2022-12-28T13:07:00.325Z,65.10
2022-12-28T13:09:30.080Z,63.50
2022-12-28T13:11:58.285Z,63.95
2022-12-28T13:14:25.709Z,65.85
2022-12-28T13:16:55.542Z,62.53
2022-12-28T13:19:27.895Z,60.14
2022-12-28T13:21:55.602Z,60.92
2022-12-28T13:24:28.136Z,63.04
2022-12-28T13:26:56.509Z,63.99
2022-12-28T13:29:27.243Z,62.14
2022-12-28T13:31:54.389Z,63.24
2022-12-28T13:34:27.166Z,62.01
2022-12-28T13:36:55.862Z,60.84
2022-12-28T13:39:29.195Z,59.63
2022-12-28T13:42:00.640Z,58.09
2022-12-28T13:44:46.111Z,61.97
2022-12-28T13:47:31.739Z,59.35
2022-12-28T13:50:07.566Z,60.18
2022-12-28T13:52:42.556Z,62.00
2022-12-28T13:55:16.989Z,60.91
2022-12-28T13:57:51.461Z,62.50
2022-12-28T14:00:23.209Z,63.58
2022-12-28T14:02:53.125Z,63.57
2022-12-28T14:05:24.355Z,62.63
2022-12-28T14:07:54.397Z,62.19
2022-12-28T14:10:22.475Z,64.14
2022-12-28T14:12:50.606Z,64.54
2022-12-28T14:15:18.671Z,61.87
2022-12-28T14:17:50.956Z,62.47
2022-12-28T14:20:19.664Z,64.56
2022-12-28T14:22:46.496Z,64.88
2022-12-28T14:25:15.741Z,64.90
2022-12-28T14:28:03.203Z,64.21
2022-12-28T14:30:33.848Z,66.28
2022-12-28T14:36:01.644Z,64.81
2022-12-28T14:38:39.538Z,64.37
2022-12-28T14:41:07.565Z,66.40
2022-12-28T14:43:36.097Z,67.04
2022-12-28T14:46:36.515Z,67.67
2022-12-28T14:49:28.019Z,67.32
2022-12-28T14:52:08.957Z,69.44
2022-12-28T14:54:50.356Z,69.91
2022-12-28T14:57:32.098Z,70.91
2022-12-28T15:00:06.103Z,71.80
2022-12-28T15:02:35.640Z,72.66
2022-12-28T15:05:03.152Z,70.83
2022-12-28T15:07:31.576Z,70.42
2022-12-28T15:09:58.238Z,71.31
2022-12-28T15:12:24.899Z,73.92
2022-12-28T15:14:51.752Z,74.68
2022-12-28T15:17:18.952Z,73.24
2022-12-28T15:19:45.838Z,72.89
2022-12-28T15:22:12.800Z,71.11
2022-12-28T15:24:39.466Z,69.93
2022-12-28T15:27:06.096Z,70.96
2022-12-28T15:29:56.192Z,71.70
2022-12-28T15:32:19.352Z,73.67
2022-12-28T15:34:45.960Z,77.06
2022-12-28T15:37:12.535Z,77.38
2022-12-28T15:39:39.137Z,77.13
2022-12-28T15:42:05.727Z,78.41
2022-12-28T15:44:32.330Z,78.00
2022-12-28T15:46:59.268Z,78.56
2022-12-28T15:49:25.926Z,78.36
2022-12-28T15:51:52.716Z,78.09
2022-12-28T15:54:19.356Z,77.52
2022-12-28T15:56:52.782Z,79.17
2022-12-28T15:59:20.032Z,78.34
2022-12-28T16:01:46.847Z,78.04
2022-12-28T16:04:13.666Z,77.06
2022-12-28T16:06:44.755Z,76.27
2022-12-28T16:09:12.935Z,75.62
2022-12-28T16:11:40.421Z,76.96
2022-12-28T16:14:11.743Z,77.72
2022-12-28T16:16:40.075Z,77.95
2022-12-28T16:19:07.434Z,79.03
2022-12-28T16:21:34.335Z,77.44
2022-12-28T16:24:01.114Z,78.45
2022-12-28T16:26:28.332Z,78.72
2022-12-28T16:28:55.144Z,77.88
2022-12-28T16:31:33.960Z,78.87
2022-12-28T16:34:04.372Z,79.14
2022-12-28T16:36:31.595Z,78.14
2022-12-28T16:38:58.741Z,78.09
2022-12-28T16:41:28.734Z,80.06
2022-12-28T16:44:07.678Z,79.53
2022-12-28T16:46:34.306Z,78.71
2022-12-28T16:49:02.082Z,78.97
2022-12-28T16:51:32.114Z,79.29
2022-12-28T16:53:58.762Z,79.58
2022-12-28T16:56:25.460Z,78.77
2022-12-28T16:58:56.161Z,80.67
2022-12-28T17:01:22.871Z,80.54
2022-12-28T17:03:49.604Z,80.56
2022-12-28T17:06:16.306Z,82.27
2022-12-28T17:08:43.090Z,82.28
2022-12-28T17:11:11.379Z,80.93
2022-12-28T17:13:38.334Z,81.76
2022-12-28T17:16:06.239Z,80.80
2022-12-28T17:18:33.255Z,78.86
2022-12-28T17:21:04.970Z,78.50
2022-12-28T17:23:33.825Z,75.88
2022-12-28T17:26:00.476Z,76.26
2022-12-28T17:28:27.158Z,74.99
2022-12-28T17:31:15.481Z,76.97
2022-12-28T17:33:50.561Z,73.57
2022-12-28T17:36:17.685Z,72.81
2022-12-28T17:38:44.339Z,74.89
2022-12-28T17:41:16.148Z,73.47
2022-12-28T17:43:47.317Z,72.47
2022-12-28T17:46:14.059Z,73.77
2022-12-28T17:48:40.686Z,73.35
2022-12-28T17:51:11.182Z,74.54
2022-12-28T17:53:39.338Z,72.47
2022-12-28T17:56:09.385Z,73.82
2022-12-28T17:58:36.020Z,74.13
2022-12-28T18:01:03.461Z,72.95
2022-12-28T18:03:33.863Z,75.36
2022-12-28T18:06:01.277Z,76.78
2022-12-28T18:08:28.405Z,76.63
2022-12-28T18:10:55.082Z,76.37
2022-12-28T18:13:22.447Z,77.74
2022-12-28T18:15:49.434Z,76.28
2022-12-28T18:18:17.242Z,77.69
2022-12-28T18:20:44.522Z,76.57
2022-12-28T18:23:11.931Z,74.40
2022-12-28T18:25:38.709Z,75.64
2022-12-28T18:28:05.439Z,76.86
2022-12-28T18:30:32.080Z,75.91
2022-12-28T18:32:58.762Z,75.16
2022-12-28T18:35:25.343Z,78.96
2022-12-28T18:37:51.966Z,78.60
2022-12-28T18:40:18.583Z,78.92
2022-12-28T18:42:45.185Z,77.29
2022-12-28T18:45:11.777Z,77.41
2022-12-28T18:47:38.408Z,77.13
2022-12-28T18:50:05.429Z,77.69
2022-12-28T18:52:32.013Z,78.18
2022-12-28T18:54:58.604Z,76.34
2022-12-28T18:57:25.191Z,74.52
2022-12-28T18:59:51.837Z,76.32
2022-12-28T19:02:19.901Z,77.00
2022-12-28T19:04:46.804Z,78.48
2022-12-28T19:07:13.490Z,79.20
2022-12-28T19:09:40.075Z,79.10
2022-12-28T19:12:06.848Z,78.52
2022-12-28T19:14:33.447Z,79.37
2022-12-28T19:17:00.030Z,79.31
2022-12-28T19:19:26.621Z,79.83
2022-12-28T19:21:58.452Z,79.54
2022-12-28T19:24:25.385Z,79.75
2022-12-28T19:26:51.976Z,79.66
2022-12-28T19:29:18.540Z,79.04
2022-12-28T19:31:45.249Z,78.98
2022-12-28T19:34:11.919Z,79.36
2022-12-28T19:36:38.561Z,78.92
2022-12-28T19:39:05.205Z,80.56
2022-12-28T19:41:31.906Z,80.82
2022-12-28T19:43:58.492Z,81.17
2022-12-28T19:46:26.228Z,81.68
2022-12-28T19:48:54.040Z,81.88
2022-12-28T19:51:22.563Z,80.77
2022-12-28T19:53:53.294Z,81.40
2022-12-28T19:56:20.903Z,81.13
2022-12-28T19:58:47.650Z,80.94
2022-12-28T20:01:19.551Z,80.94
2022-12-28T20:03:47.315Z,82.02
2022-12-28T20:06:17.823Z,81.20
2022-12-28T20:08:49.391Z,81.86
2022-12-28T20:11:17.155Z,82.42
2022-12-28T20:13:52.689Z,82.24
2022-12-28T20:16:19.817Z,82.04
2022-12-28T20:18:47.293Z,82.19
2022-12-28T20:21:22.025Z,82.97
2022-12-28T20:23:50.418Z,84.25
2022-12-28T20:26:19.082Z,83.38
2022-12-28T20:28:46.045Z,84.19
2022-12-28T20:31:14.397Z,82.08
2022-12-28T20:33:42.015Z,81.93
2022-12-28T20:36:12.874Z,82.64
2022-12-28T20:38:39.555Z,83.02
2022-12-28T20:41:07.354Z,82.03
2022-12-28T20:43:34.483Z,82.75
2022-12-28T20:46:02.111Z,84.44
2022-12-28T20:48:29.359Z,84.90
2022-12-28T20:51:00.208Z,83.96
2022-12-28T20:53:27.949Z,84.38
2022-12-28T20:56:06.046Z,84.23
2022-12-28T20:58:32.630Z,84.29
2022-12-28T21:01:57.198Z,84.99
2022-12-28T21:04:24.374Z,83.63
2022-12-28T21:06:54.608Z,85.11
2022-12-28T21:09:21.909Z,85.75
2022-12-28T21:11:48.535Z,85.36
2022-12-28T21:14:15.129Z,83.45
2022-12-28T21:16:41.764Z,84.36
2022-12-28T21:19:09.831Z,85.67
2022-12-28T21:21:36.481Z,85.59
2022-12-28T21:24:03.901Z,84.68
2022-12-28T21:26:30.645Z,84.46
2022-12-28T21:28:57.236Z,85.31
2022-12-28T21:31:24.270Z,86.55
2022-12-28T21:33:55.271Z,86.70
2022-12-28T21:36:22.278Z,85.01
2022-12-28T21:38:49.366Z,86.19
2022-12-28T21:41:19.201Z,85.71
2022-12-28T21:43:45.771Z,85.36
2022-12-28T21:46:14.477Z,86.25
2022-12-28T21:48:41.959Z,84.09
2022-12-28T21:51:08.494Z,85.43
2022-12-28T21:53:35.184Z,85.08
2022-12-28T21:56:01.778Z,84.84
2022-12-28T21:58:28.379Z,83.67
2022-12-28T22:00:59.193Z,85.69
2022-12-28T22:03:26.042Z,86.07
2022-12-28T22:05:52.707Z,85.16
2022-12-28T22:08:19.283Z,85.65
2022-12-28T22:10:45.883Z,86.16
2022-12-28T22:13:12.568Z,87.02
2022-12-28T22:15:39.155Z,86.49
2022-12-28T22:21:04.994Z,87.25
2022-12-28T22:23:34.719Z,86.73
2022-12-28T22:26:02.209Z,87.42
2022-12-28T22:28:28.832Z,86.46
2022-12-28T22:30:55.407Z,87.18
2022-12-28T22:33:22.005Z,87.28
2022-12-28T22:35:48.590Z,86.16
2022-12-28T22:38:15.185Z,87.20
2022-12-28T22:40:41.846Z,88.08
2022-12-28T22:43:08.442Z,88.84
2022-12-28T22:45:35.055Z,87.48
2022-12-28T22:48:01.742Z,89.11
2022-12-28T22:50:28.394Z,87.81
2022-12-28T22:52:56.117Z,88.65
2022-12-28T22:55:22.744Z,90.49
2022-12-28T22:57:49.470Z,90.26
2022-12-28T23:00:18.217Z,90.81
2022-12-28T23:02:45.012Z,90.33
2022-12-28T23:05:11.775Z,90.30
2022-12-28T23:07:38.456Z,90.33
2022-12-28T23:10:06.891Z,90.06
2022-12-28T23:12:33.498Z,90.91
2022-12-28T23:15:00.097Z,89.79
2022-12-28T23:17:26.857Z,90.77
2022-12-28T23:19:53.461Z,90.26
2022-12-28T23:22:25.472Z,91.33
2022-12-28T23:24:52.060Z,90.77
2022-12-28T23:27:18.669Z,90.09
2022-12-28T23:29:46.161Z,90.25
2022-12-28T23:32:13.124Z,89.83
2022-12-28T23:34:39.736Z,89.72
2022-12-28T23:37:06.422Z,90.31
2022-12-28T23:39:33.107Z,90.57
2022-12-28T23:41:59.715Z,89.60
2022-12-28T23:44:26.783Z,91.18
2022-12-28T23:46:59.012Z,91.08
2022-12-28T23:49:26.683Z,92.05
2022-12-28T23:51:53.368Z,91.09
2022-12-28T23:54:20.745Z,92.12
2022-12-28T23:56:48.167Z,92.18
2022-12-28T23:59:15.376Z,92.53
